RA9734 UWSG-URSS
Flight info
| Callsign | RA9734 |
|---|---|
| Flight time | N/A |
| Altitude | 38000 |
| Route | KR1K KR G900 OBABI/K0635F390 G900 ER B145 SUDIR N166 ADNET W79 BINOL BINOL1K |
| Aircraft | E50P/L-SBDFGRWY/LB2 |
Departure
| Time | 2026-04-22 20:39 |
|---|---|
| Airport | Gagarin International Airport (UWSG) |
Arrival
| Time | N/A |
|---|---|
| Airport | Sochi International Airport (URSS) |
| Time | Latitude | Longitude | Altitude | Speed | Heading |
|---|---|---|---|---|---|
| 2026-04-22 20:34 | 51.71574 | 46.17328 | 106 ft | 0 kts | 325° |
| 2026-04-22 20:36 | 51.71574 | 46.17327 | 106 ft | 1 kts | 322° |
| 2026-04-22 20:37 | 51.71592 | 46.17302 | 106 ft | 7 kts | 320° |
| 2026-04-22 20:37 | 51.71617 | 46.17281 | 106 ft | 6 kts | 332° |
| 2026-04-22 20:37 | 51.71631 | 46.17278 | 106 ft | 3 kts | 30° |
| 2026-04-22 20:37 | 51.71644 | 46.17327 | 106 ft | 7 kts | 88° |
| 2026-04-22 20:38 | 51.71627 | 46.17398 | 106 ft | 9 kts | 143° |
| 2026-04-22 20:38 | 51.71557 | 46.17425 | 106 ft | 13 kts | 180° |
| 2026-04-22 20:38 | 51.71442 | 46.17415 | 106 ft | 20 kts | 187° |
| 2026-04-22 20:38 | 51.71292 | 46.17408 | 106 ft | 18 kts | 190° |
| 2026-04-22 20:39 | 51.71261 | 46.17154 | 103 ft | 55 kts | 272° |
| 2026-04-22 20:39 | 51.71291 | 46.15909 | 169 ft | 159 kts | 271° |
| 2026-04-22 20:39 | 51.71313 | 46.13844 | 1007 ft | 199 kts | 271° |
| 2026-04-22 20:39 | 51.71338 | 46.11463 | 2688 ft | 222 kts | 275° |
| 2026-04-22 20:40 | 51.71467 | 46.08883 | 4457 ft | 235 kts | 275° |
| 2026-04-22 20:40 | 51.71562 | 46.06242 | 6313 ft | 238 kts | 266° |
| 2026-04-22 20:40 | 51.70944 | 46.03782 | 8102 ft | 242 kts | 232° |
| 2026-04-22 20:40 | 51.69574 | 46.02245 | 9964 ft | 242 kts | 203° |
| 2026-04-22 20:41 | 51.67937 | 46.01709 | 11735 ft | 241 kts | 183° |
| 2026-04-22 20:41 | 51.66295 | 46.02153 | 13536 ft | 238 kts | 169° |
| 2026-04-22 20:41 | 51.64694 | 46.02676 | 15127 ft | 233 kts | 174° |
| 2026-04-22 20:41 | 51.63061 | 46.03027 | 16436 ft | 247 kts | 175° |
| 2026-04-22 20:42 | 51.61263 | 46.03445 | 17651 ft | 269 kts | 173° |
| 2026-04-22 20:42 | 51.59394 | 46.03899 | 19631 ft | 276 kts | 174° |
| 2026-04-22 20:42 | 51.57471 | 46.04228 | 21727 ft | 279 kts | 181° |
| 2026-04-22 20:42 | 51.55559 | 46.03784 | 23852 ft | 279 kts | 196° |
| 2026-04-22 20:43 | 51.53757 | 46.02667 | 25843 ft | 276 kts | 209° |
| 2026-04-22 20:43 | 51.52033 | 46.01322 | 27996 ft | 275 kts | 207° |
| 2026-04-22 20:43 | 51.50308 | 46.00088 | 30187 ft | 266 kts | 208° |
| 2026-04-22 20:43 | 51.48679 | 45.98830 | 32057 ft | 253 kts | 210° |
| 2026-04-22 20:44 | 51.47135 | 45.97631 | 33815 ft | 245 kts | 209° |
| 2026-04-22 20:44 | 51.45586 | 45.96450 | 34967 ft | 247 kts | 209° |
| 2026-04-22 20:44 | 51.44028 | 45.95262 | 36129 ft | 248 kts | 208° |
| 2026-04-22 20:44 | 51.42468 | 45.94079 | 37279 ft | 248 kts | 208° |
| 2026-04-22 20:45 | 51.40910 | 45.92890 | 38416 ft | 248 kts | 208° |
| 2026-04-22 20:45 | 51.39347 | 45.91707 | 39292 ft | 249 kts | 208° |
| 2026-04-22 20:45 | 51.37748 | 45.90484 | 39704 ft | 273 kts | 208° |
| 2026-04-22 20:45 | 51.35914 | 45.89082 | 39712 ft | 312 kts | 208° |
| 2026-04-22 20:46 | 51.31540 | 45.85777 | 39724 ft | 381 kts | 207° |
| 2026-04-22 20:46 | 51.29049 | 45.83897 | 39723 ft | 410 kts | 207° |
| 2026-04-22 20:46 | 51.26393 | 45.81891 | 39723 ft | 435 kts | 207° |
| 2026-04-22 20:47 | 51.23579 | 45.79770 | 39728 ft | 458 kts | 207° |
| 2026-04-22 20:47 | 51.20634 | 45.77552 | 39727 ft | 478 kts | 207° |
| 2026-04-22 20:47 | 51.17566 | 45.75246 | 39729 ft | 497 kts | 207° |
| 2026-04-22 20:47 | 51.14376 | 45.72850 | 39726 ft | 515 kts | 207° |
| 2026-04-22 20:48 | 51.11082 | 45.70381 | 39732 ft | 532 kts | 207° |
| 2026-04-22 20:48 | 51.07708 | 45.67857 | 39730 ft | 536 kts | 207° |
| 2026-04-22 20:48 | 51.01241 | 45.62029 | 39732 ft | 534 kts | 217° |
| 2026-04-22 20:49 | 50.95417 | 45.54736 | 39732 ft | 533 kts | 219° |
| 2026-04-22 20:49 | 50.89591 | 45.47484 | 39736 ft | 533 kts | 219° |
| 2026-04-22 20:50 | 50.83760 | 45.40196 | 39739 ft | 533 kts | 219° |
| 2026-04-22 20:50 | 50.77925 | 45.32962 | 39740 ft | 533 kts | 219° |
| 2026-04-22 20:51 | 50.72095 | 45.25737 | 39745 ft | 532 kts | 219° |
| 2026-04-22 20:51 | 50.66259 | 45.18539 | 39749 ft | 532 kts | 219° |
| 2026-04-22 20:52 | 50.60427 | 45.11364 | 39753 ft | 532 kts | 219° |
| 2026-04-22 20:52 | 50.54622 | 45.04248 | 39753 ft | 532 kts | 219° |
| 2026-04-22 20:53 | 50.48777 | 44.97104 | 39755 ft | 532 kts | 219° |
| 2026-04-22 20:53 | 50.42934 | 44.89987 | 39755 ft | 531 kts | 219° |
| 2026-04-22 20:54 | 50.37088 | 44.82887 | 39760 ft | 531 kts | 219° |
| 2026-04-22 20:54 | 50.31235 | 44.75804 | 39764 ft | 532 kts | 219° |
| 2026-04-22 20:55 | 50.25378 | 44.68735 | 39763 ft | 531 kts | 219° |
| 2026-04-22 20:55 | 50.19521 | 44.61693 | 39763 ft | 531 kts | 219° |
| 2026-04-22 20:56 | 50.13662 | 44.54668 | 39771 ft | 532 kts | 219° |
| 2026-04-22 20:56 | 50.07793 | 44.47652 | 39771 ft | 532 kts | 219° |
| 2026-04-22 20:57 | 50.01927 | 44.40666 | 39765 ft | 531 kts | 219° |
| 2026-04-22 20:57 | 49.96055 | 44.33693 | 39767 ft | 531 kts | 219° |
| 2026-04-22 20:58 | 49.90170 | 44.26725 | 39766 ft | 531 kts | 219° |
| 2026-04-22 20:58 | 49.84292 | 44.19789 | 39769 ft | 531 kts | 219° |
| 2026-04-22 20:59 | 49.78405 | 44.12863 | 39772 ft | 531 kts | 219° |
| 2026-04-22 20:59 | 49.72567 | 44.06018 | 39776 ft | 531 kts | 219° |
| 2026-04-22 21:00 | 49.66672 | 43.99126 | 39781 ft | 531 kts | 219° |
| 2026-04-22 21:00 | 49.60743 | 43.92216 | 39782 ft | 530 kts | 219° |
| 2026-04-22 21:01 | 49.54887 | 43.85412 | 39786 ft | 530 kts | 218° |
| 2026-04-22 21:01 | 49.48995 | 43.78587 | 39791 ft | 530 kts | 218° |
| 2026-04-22 21:02 | 49.43105 | 43.71786 | 39794 ft | 530 kts | 218° |
| 2026-04-22 21:02 | 49.37213 | 43.65005 | 39797 ft | 529 kts | 218° |
| 2026-04-22 21:03 | 49.31326 | 43.58248 | 39803 ft | 529 kts | 218° |
| 2026-04-22 21:03 | 49.25451 | 43.51470 | 39803 ft | 529 kts | 218° |
| 2026-04-22 21:04 | 49.19517 | 43.44827 | 39825 ft | 528 kts | 219° |
| 2026-04-22 21:04 | 49.13663 | 43.38054 | 39827 ft | 528 kts | 218° |
| 2026-04-22 21:05 | 49.07743 | 43.31421 | 39834 ft | 528 kts | 218° |
| 2026-04-22 21:05 | 49.01858 | 43.24717 | 39835 ft | 528 kts | 218° |
| 2026-04-22 21:06 | 48.95947 | 43.18088 | 39839 ft | 528 kts | 218° |
| 2026-04-22 21:06 | 48.90043 | 43.11436 | 39839 ft | 528 kts | 218° |
| 2026-04-22 21:07 | 48.84127 | 43.04821 | 39843 ft | 528 kts | 218° |
| 2026-04-22 21:07 | 48.78217 | 42.98214 | 39848 ft | 528 kts | 218° |
| 2026-04-22 21:08 | 48.72333 | 42.91666 | 39851 ft | 528 kts | 218° |
| 2026-04-22 21:08 | 48.66416 | 42.85096 | 39856 ft | 528 kts | 218° |
| 2026-04-22 21:09 | 48.60486 | 42.78533 | 39863 ft | 528 kts | 218° |
| 2026-04-22 21:09 | 48.54565 | 42.72000 | 39866 ft | 527 kts | 218° |
| 2026-04-22 21:10 | 48.48638 | 42.65478 | 39871 ft | 527 kts | 218° |
| 2026-04-22 21:10 | 48.42711 | 42.58977 | 39876 ft | 527 kts | 218° |
| 2026-04-22 21:11 | 48.36780 | 42.52488 | 39878 ft | 527 kts | 218° |
| 2026-04-22 21:11 | 48.30843 | 42.46014 | 39878 ft | 527 kts | 218° |
| 2026-04-22 21:12 | 48.25901 | 42.40640 | 39877 ft | 527 kts | 218° |
| 2026-04-22 21:12 | 48.19961 | 42.34196 | 39883 ft | 527 kts | 218° |
| 2026-04-22 21:13 | 48.14009 | 42.27759 | 39883 ft | 527 kts | 217° |
| 2026-04-22 21:13 | 48.08054 | 42.21337 | 39884 ft | 527 kts | 217° |
| 2026-04-22 21:14 | 48.02096 | 42.14930 | 39888 ft | 528 kts | 217° |
| 2026-04-22 21:14 | 47.96135 | 42.08540 | 39885 ft | 528 kts | 217° |
| 2026-04-22 21:15 | 47.90171 | 42.02163 | 39889 ft | 527 kts | 217° |
| 2026-04-22 21:15 | 47.84245 | 41.95848 | 39890 ft | 527 kts | 217° |
| 2026-04-22 21:16 | 47.78280 | 41.89507 | 39891 ft | 527 kts | 217° |
| 2026-04-22 21:16 | 47.72310 | 41.83180 | 39891 ft | 527 kts | 217° |
| 2026-04-22 21:17 | 47.66340 | 41.76870 | 39888 ft | 526 kts | 217° |
| 2026-04-22 21:17 | 47.60374 | 41.70583 | 39894 ft | 525 kts | 217° |
| 2026-04-22 21:18 | 47.54406 | 41.64313 | 39896 ft | 526 kts | 217° |
| 2026-04-22 21:18 | 47.48437 | 41.58060 | 39893 ft | 526 kts | 217° |
| 2026-04-22 21:19 | 47.42469 | 41.51824 | 39894 ft | 519 kts | 217° |
| 2026-04-22 21:19 | 47.39653 | 41.48895 | 39895 ft | 474 kts | 217° |
| 2026-04-22 21:19 | 47.37072 | 41.46175 | 39895 ft | 439 kts | 218° |
| 2026-04-22 21:20 | 47.34760 | 41.43501 | 39897 ft | 408 kts | 221° |
| 2026-04-22 21:20 | 47.32676 | 41.40877 | 39897 ft | 381 kts | 224° |
| 2026-04-22 21:20 | 47.30806 | 41.38293 | 39895 ft | 356 kts | 226° |
| 2026-04-22 21:20 | 47.29250 | 41.35624 | 39896 ft | 333 kts | 238° |
| 2026-04-22 21:21 | 47.28639 | 41.32509 | 39893 ft | 315 kts | 275° |
| 2026-04-22 21:21 | 47.29831 | 41.30601 | 39930 ft | 0 kts | 1° |